sensor_id;sensor_type;location;lat;lon;timestamp;temperature;humidity
17399;DHT22;8817;48.170;8.592;2022-09-21T00:00:52;15.40;44.90
17399;DHT22;8817;48.170;8.592;2022-09-21T00:03:19;15.40;44.90
17399;DHT22;8817;48.170;8.592;2022-09-21T00:05:46;15.40;44.90
17399;DHT22;8817;48.170;8.592;2022-09-21T00:08:13;15.30;44.90
17399;DHT22;8817;48.170;8.592;2022-09-21T00:10:40;15.30;44.90
17399;DHT22;8817;48.170;8.592;2022-09-21T00:13:07;15.30;45.00
17399;DHT22;8817;48.170;8.592;2022-09-21T00:15:38;15.20;44.90
17399;DHT22;8817;48.170;8.592;2022-09-21T00:18:08;15.30;45.00
17399;DHT22;8817;48.170;8.592;2022-09-21T00:20:35;15.20;44.90
17399;DHT22;8817;48.170;8.592;2022-09-21T00:23:02;15.10;44.90
17399;DHT22;8817;48.170;8.592;2022-09-21T00:25:29;15.20;45.00
17399;DHT22;8817;48.170;8.592;2022-09-21T00:27:56;15.10;45.00
17399;DHT22;8817;48.170;8.592;2022-09-21T00:30:23;15.10;45.00
17399;DHT22;8817;48.170;8.592;2022-09-21T00:32:52;15.00;45.00
17399;DHT22;8817;48.170;8.592;2022-09-21T00:35:20;15.00;45.00
17399;DHT22;8817;48.170;8.592;2022-09-21T00:37:47;15.00;45.00
17399;DHT22;8817;48.170;8.592;2022-09-21T00:40:14;15.00;45.10
17399;DHT22;8817;48.170;8.592;2022-09-21T00:42:41;15.00;45.10
17399;DHT22;8817;48.170;8.592;2022-09-21T00:45:11;15.00;45.10
17399;DHT22;8817;48.170;8.592;2022-09-21T00:47:47;15.00;45.20
17399;DHT22;8817;48.170;8.592;2022-09-21T00:50:18;15.00;45.20
17399;DHT22;8817;48.170;8.592;2022-09-21T00:52:50;15.00;45.20
17399;DHT22;8817;48.170;8.592;2022-09-21T00:55:20;15.00;45.20
17399;DHT22;8817;48.170;8.592;2022-09-21T00:57:52;15.00;45.30
17399;DHT22;8817;48.170;8.592;2022-09-21T01:00:20;15.00;45.30
17399;DHT22;8817;48.170;8.592;2022-09-21T01:02:48;15.00;45.30
17399;DHT22;8817;48.170;8.592;2022-09-21T01:05:15;15.00;45.30
17399;DHT22;8817;48.170;8.592;2022-09-21T01:07:44;15.00;45.30
17399;DHT22;8817;48.170;8.592;2022-09-21T01:10:16;14.90;45.30
17399;DHT22;8817;48.170;8.592;2022-09-21T01:12:55;14.90;45.30
17399;DHT22;8817;48.170;8.592;2022-09-21T01:15:34;14.90;45.30
17399;DHT22;8817;48.170;8.592;2022-09-21T01:18:08;14.90;45.30
17399;DHT22;8817;48.170;8.592;2022-09-21T01:21:03;14.90;45.30
17399;DHT22;8817;48.170;8.592;2022-09-21T01:23:45;14.90;45.30
17399;DHT22;8817;48.170;8.592;2022-09-21T01:26:24;14.90;45.30
17399;DHT22;8817;48.170;8.592;2022-09-21T01:29:05;14.90;45.30
17399;DHT22;8817;48.170;8.592;2022-09-21T01:31:38;14.80;45.20
17399;DHT22;8817;48.170;8.592;2022-09-21T01:34:09;14.80;45.20
17399;DHT22;8817;48.170;8.592;2022-09-21T01:36:39;14.80;45.20
17399;DHT22;8817;48.170;8.592;2022-09-21T01:39:11;14.80;45.80
17399;DHT22;8817;48.170;8.592;2022-09-21T01:41:41;14.70;45.20
17399;DHT22;8817;48.170;8.592;2022-09-21T01:44:14;14.70;45.20
17399;DHT22;8817;48.170;8.592;2022-09-21T01:46:45;14.70;45.20
17399;DHT22;8817;48.170;8.592;2022-09-21T01:49:15;14.70;45.20
17399;DHT22;8817;48.170;8.592;2022-09-21T01:51:49;14.60;45.10
17399;DHT22;8817;48.170;8.592;2022-09-21T01:54:20;14.60;45.20
17399;DHT22;8817;48.170;8.592;2022-09-21T01:56:53;14.60;45.20
17399;DHT22;8817;48.170;8.592;2022-09-21T01:59:27;14.60;45.20
17399;DHT22;8817;48.170;8.592;2022-09-21T02:01:59;14.50;45.20
17399;DHT22;8817;48.170;8.592;2022-09-21T02:04:29;14.50;45.20
17399;DHT22;8817;48.170;8.592;2022-09-21T02:06:56;14.50;45.20
17399;DHT22;8817;48.170;8.592;2022-09-21T02:09:24;14.50;45.20
17399;DHT22;8817;48.170;8.592;2022-09-21T02:11:51;14.40;45.20
17399;DHT22;8817;48.170;8.592;2022-09-21T02:14:22;14.40;45.20
17399;DHT22;8817;48.170;8.592;2022-09-21T02:16:57;14.40;45.20
17399;DHT22;8817;48.170;8.592;2022-09-21T02:19:36;14.30;45.20
17399;DHT22;8817;48.170;8.592;2022-09-21T02:22:10;14.30;45.20
17399;DHT22;8817;48.170;8.592;2022-09-21T02:24:41;14.30;45.20
17399;DHT22;8817;48.170;8.592;2022-09-21T02:27:17;14.30;45.20
17399;DHT22;8817;48.170;8.592;2022-09-21T02:29:50;14.20;45.20
17399;DHT22;8817;48.170;8.592;2022-09-21T02:32:26;14.20;45.20
17399;DHT22;8817;48.170;8.592;2022-09-21T02:35:02;14.20;45.20
17399;DHT22;8817;48.170;8.592;2022-09-21T02:37:36;14.10;45.10
17399;DHT22;8817;48.170;8.592;2022-09-21T02:40:12;14.10;45.10
17399;DHT22;8817;48.170;8.592;2022-09-21T02:42:43;14.00;45.70
17399;DHT22;8817;48.170;8.592;2022-09-21T02:45:19;14.00;45.70
17399;DHT22;8817;48.170;8.592;2022-09-21T02:47:51;14.00;45.20
17399;DHT22;8817;48.170;8.592;2022-09-21T02:50:23;14.00;45.20
17399;DHT22;8817;48.170;8.592;2022-09-21T02:52:53;14.00;45.30
17399;DHT22;8817;48.170;8.592;2022-09-21T02:55:21;14.00;45.20
17399;DHT22;8817;48.170;8.592;2022-09-21T02:57:49;13.90;45.20
17399;DHT22;8817;48.170;8.592;2022-09-21T03:00:17;13.90;45.20
17399;DHT22;8817;48.170;8.592;2022-09-21T03:02:44;13.90;45.80
17399;DHT22;8817;48.170;8.592;2022-09-21T03:05:12;13.80;45.70
17399;DHT22;8817;48.170;8.592;2022-09-21T03:07:40;13.80;45.20
17399;DHT22;8817;48.170;8.592;2022-09-21T03:10:07;13.80;45.20
17399;DHT22;8817;48.170;8.592;2022-09-21T03:12:34;13.80;45.40
17399;DHT22;8817;48.170;8.592;2022-09-21T03:15:02;13.80;45.20
17399;DHT22;8817;48.170;8.592;2022-09-21T03:17:30;13.70;45.20
17399;DHT22;8817;48.170;8.592;2022-09-21T03:19:57;13.70;45.20
17399;DHT22;8817;48.170;8.592;2022-09-21T03:22:24;13.70;45.20
17399;DHT22;8817;48.170;8.592;2022-09-21T03:24:52;13.70;45.20
17399;DHT22;8817;48.170;8.592;2022-09-21T03:27:22;13.70;45.30
17399;DHT22;8817;48.170;8.592;2022-09-21T03:29:50;13.60;45.20
17399;DHT22;8817;48.170;8.592;2022-09-21T03:32:17;13.60;45.20
17399;DHT22;8817;48.170;8.592;2022-09-21T03:34:45;13.60;45.30
17399;DHT22;8817;48.170;8.592;2022-09-21T03:37:12;13.60;45.30
17399;DHT22;8817;48.170;8.592;2022-09-21T03:39:39;13.60;45.30
17399;DHT22;8817;48.170;8.592;2022-09-21T03:42:06;13.60;45.30
17399;DHT22;8817;48.170;8.592;2022-09-21T03:44:34;13.60;45.30
17399;DHT22;8817;48.170;8.592;2022-09-21T03:47:02;13.50;45.20
17399;DHT22;8817;48.170;8.592;2022-09-21T03:49:31;13.50;45.20
17399;DHT22;8817;48.170;8.592;2022-09-21T03:52:00;13.50;45.20
17399;DHT22;8817;48.170;8.592;2022-09-21T03:54:27;13.50;45.30
17399;DHT22;8817;48.170;8.592;2022-09-21T03:56:54;13.50;45.30
17399;DHT22;8817;48.170;8.592;2022-09-21T03:59:20;13.50;45.30
17399;DHT22;8817;48.170;8.592;2022-09-21T04:01:47;13.40;45.20
17399;DHT22;8817;48.170;8.592;2022-09-21T04:04:14;13.40;45.20
17399;DHT22;8817;48.170;8.592;2022-09-21T04:06:42;13.40;45.20
17399;DHT22;8817;48.170;8.592;2022-09-21T04:09:11;13.40;45.30
17399;DHT22;8817;48.170;8.592;2022-09-21T04:11:38;13.40;45.30
17399;DHT22;8817;48.170;8.592;2022-09-21T04:14:05;13.40;45.30
17399;DHT22;8817;48.170;8.592;2022-09-21T04:16:32;13.30;45.20
17399;DHT22;8817;48.170;8.592;2022-09-21T04:18:59;13.30;44.80
17399;DHT22;8817;48.170;8.592;2022-09-21T04:21:26;13.00;46.00
17399;DHT22;8817;48.170;8.592;2022-09-21T04:23:53;13.10;45.90
17399;DHT22;8817;48.170;8.592;2022-09-21T04:26:23;13.20;45.70
17399;DHT22;8817;48.170;8.592;2022-09-21T04:28:50;13.20;45.60
17399;DHT22;8817;48.170;8.592;2022-09-21T04:31:18;13.30;45.60
17399;DHT22;8817;48.170;8.592;2022-09-21T04:33:47;13.30;45.50
17399;DHT22;8817;48.170;8.592;2022-09-21T04:36:14;13.20;45.50
17399;DHT22;8817;48.170;8.592;2022-09-21T04:38:41;13.30;45.50
17399;DHT22;8817;48.170;8.592;2022-09-21T04:41:08;13.20;45.40
17399;DHT22;8817;48.170;8.592;2022-09-21T04:43:37;13.20;45.40
17399;DHT22;8817;48.170;8.592;2022-09-21T04:46:05;13.20;45.40
17399;DHT22;8817;48.170;8.592;2022-09-21T04:48:32;13.20;45.40
17399;DHT22;8817;48.170;8.592;2022-09-21T04:50:59;13.20;45.40
17399;DHT22;8817;48.170;8.592;2022-09-21T04:53:26;13.20;46.00
17399;DHT22;8817;48.170;8.592;2022-09-21T04:55:53;13.20;46.00
17399;DHT22;8817;48.170;8.592;2022-09-21T04:58:21;13.10;45.40
17399;DHT22;8817;48.170;8.592;2022-09-21T05:00:50;13.10;45.40
17399;DHT22;8817;48.170;8.592;2022-09-21T05:03:18;13.10;45.40
17399;DHT22;8817;48.170;8.592;2022-09-21T05:05:46;13.10;45.40
17399;DHT22;8817;48.170;8.592;2022-09-21T05:08:13;13.10;45.40
17399;DHT22;8817;48.170;8.592;2022-09-21T05:10:40;13.10;45.40
17399;DHT22;8817;48.170;8.592;2022-09-21T05:13:06;13.10;45.40
17399;DHT22;8817;48.170;8.592;2022-09-21T05:15:33;13.10;45.50
17399;DHT22;8817;48.170;8.592;2022-09-21T05:18:01;13.10;45.50
17399;DHT22;8817;48.170;8.592;2022-09-21T05:20:28;13.00;45.40
17399;DHT22;8817;48.170;8.592;2022-09-21T05:22:59;13.00;45.40
17399;DHT22;8817;48.170;8.592;2022-09-21T05:25:27;13.00;45.50
17399;DHT22;8817;48.170;8.592;2022-09-21T05:27:54;13.00;45.40
17399;DHT22;8817;48.170;8.592;2022-09-21T05:30:21;13.00;45.50
17399;DHT22;8817;48.170;8.592;2022-09-21T05:32:55;12.90;45.50
17399;DHT22;8817;48.170;8.592;2022-09-21T05:35:29;12.90;45.50
17399;DHT22;8817;48.170;8.592;2022-09-21T05:38:02;12.90;45.50
17399;DHT22;8817;48.170;8.592;2022-09-21T05:40:32;13.00;45.60
17399;DHT22;8817;48.170;8.592;2022-09-21T05:43:00;12.90;46.10
17399;DHT22;8817;48.170;8.592;2022-09-21T05:45:27;12.90;45.60
17399;DHT22;8817;48.170;8.592;2022-09-21T05:48:00;12.90;45.60
17399;DHT22;8817;48.170;8.592;2022-09-21T05:50:45;12.90;45.70
17399;DHT22;8817;48.170;8.592;2022-09-21T05:56:06;12.90;46.30
17399;DHT22;8817;48.170;8.592;2022-09-21T05:58:41;12.90;45.80
17399;DHT22;8817;48.170;8.592;2022-09-21T06:01:19;12.90;45.80
17399;DHT22;8817;48.170;8.592;2022-09-21T06:03:50;13.00;46.00
17399;DHT22;8817;48.170;8.592;2022-09-21T06:06:19;13.00;45.90
17399;DHT22;8817;48.170;8.592;2022-09-21T06:08:47;13.00;46.00
17399;DHT22;8817;48.170;8.592;2022-09-21T06:11:14;13.00;46.00
17399;DHT22;8817;48.170;8.592;2022-09-21T06:13:40;13.10;46.10
17399;DHT22;8817;48.170;8.592;2022-09-21T06:16:08;13.10;46.70
17399;DHT22;8817;48.170;8.592;2022-09-21T06:18:36;13.20;46.20
17399;DHT22;8817;48.170;8.592;2022-09-21T06:21:04;13.20;46.20
17399;DHT22;8817;48.170;8.592;2022-09-21T06:23:33;13.20;46.20
17399;DHT22;8817;48.170;8.592;2022-09-21T06:26:00;13.20;46.20
17399;DHT22;8817;48.170;8.592;2022-09-21T06:28:27;13.30;46.20
17399;DHT22;8817;48.170;8.592;2022-09-21T06:30:55;13.30;46.20
17399;DHT22;8817;48.170;8.592;2022-09-21T06:33:23;13.30;46.20
17399;DHT22;8817;48.170;8.592;2022-09-21T06:35:53;13.30;46.30
17399;DHT22;8817;48.170;8.592;2022-09-21T06:38:21;13.30;46.30
17399;DHT22;8817;48.170;8.592;2022-09-21T06:40:50;13.30;46.30
17399;DHT22;8817;48.170;8.592;2022-09-21T06:43:17;13.30;46.40
17399;DHT22;8817;48.170;8.592;2022-09-21T06:45:52;13.40;46.50
17399;DHT22;8817;48.170;8.592;2022-09-21T06:48:19;13.40;46.50
17399;DHT22;8817;48.170;8.592;2022-09-21T06:50:46;13.40;46.50
17399;DHT22;8817;48.170;8.592;2022-09-21T06:53:13;13.50;46.70
17399;DHT22;8817;48.170;8.592;2022-09-21T06:55:40;13.50;46.70
17399;DHT22;8817;48.170;8.592;2022-09-21T06:58:09;13.60;46.90
17399;DHT22;8817;48.170;8.592;2022-09-21T07:00:36;13.70;47.00
17399;DHT22;8817;48.170;8.592;2022-09-21T07:03:03;13.70;47.10
17399;DHT22;8817;48.170;8.592;2022-09-21T07:05:31;13.80;47.20
17399;DHT22;8817;48.170;8.592;2022-09-21T07:07:58;13.90;47.30
17399;DHT22;8817;48.170;8.592;2022-09-21T07:10:25;14.00;47.30
17399;DHT22;8817;48.170;8.592;2022-09-21T07:12:52;14.10;47.40
17399;DHT22;8817;48.170;8.592;2022-09-21T07:15:20;14.20;47.40
17399;DHT22;8817;48.170;8.592;2022-09-21T07:17:48;14.40;47.50
17399;DHT22;8817;48.170;8.592;2022-09-21T07:20:15;14.50;47.50
17399;DHT22;8817;48.170;8.592;2022-09-21T07:22:42;14.50;47.50
17399;DHT22;8817;48.170;8.592;2022-09-21T07:25:09;14.70;47.50
17399;DHT22;8817;48.170;8.592;2022-09-21T07:27:36;14.80;47.60
17399;DHT22;8817;48.170;8.592;2022-09-21T07:30:04;14.80;47.50
17399;DHT22;8817;48.170;8.592;2022-09-21T07:32:32;15.00;47.60
17399;DHT22;8817;48.170;8.592;2022-09-21T07:35:00;15.00;47.50
17399;DHT22;8817;48.170;8.592;2022-09-21T07:37:27;15.10;47.50
17399;DHT22;8817;48.170;8.592;2022-09-21T07:39:56;15.20;47.60
17399;DHT22;8817;48.170;8.592;2022-09-21T07:42:23;15.30;47.60
17399;DHT22;8817;48.170;8.592;2022-09-21T07:44:52;15.40;47.70
17399;DHT22;8817;48.170;8.592;2022-09-21T07:47:19;15.50;47.70
17399;DHT22;8817;48.170;8.592;2022-09-21T07:49:47;15.50;47.60
17399;DHT22;8817;48.170;8.592;2022-09-21T07:52:14;15.60;47.60
17399;DHT22;8817;48.170;8.592;2022-09-21T07:54:41;15.70;47.60
17399;DHT22;8817;48.170;8.592;2022-09-21T07:57:08;15.80;47.60
17399;DHT22;8817;48.170;8.592;2022-09-21T07:59:52;15.80;47.60
17399;DHT22;8817;48.170;8.592;2022-09-21T08:02:23;15.90;47.60
17399;DHT22;8817;48.170;8.592;2022-09-21T08:04:51;16.00;47.70
17399;DHT22;8817;48.170;8.592;2022-09-21T08:07:18;16.00;47.70
17399;DHT22;8817;48.170;8.592;2022-09-21T08:09:45;16.10;47.80
17399;DHT22;8817;48.170;8.592;2022-09-21T08:12:14;16.20;47.60
17399;DHT22;8817;48.170;8.592;2022-09-21T08:14:43;16.20;47.50
17399;DHT22;8817;48.170;8.592;2022-09-21T08:17:10;16.30;47.50
17399;DHT22;8817;48.170;8.592;2022-09-21T08:19:37;16.30;47.50
17399;DHT22;8817;48.170;8.592;2022-09-21T08:22:05;16.40;47.60
17399;DHT22;8817;48.170;8.592;2022-09-21T08:24:32;16.40;47.60
17399;DHT22;8817;48.170;8.592;2022-09-21T08:26:59;16.50;47.70
17399;DHT22;8817;48.170;8.592;2022-09-21T08:29:26;16.50;47.70
17399;DHT22;8817;48.170;8.592;2022-09-21T08:31:53;16.60;47.70
17399;DHT22;8817;48.170;8.592;2022-09-21T08:34:20;16.70;47.80
17399;DHT22;8817;48.170;8.592;2022-09-21T08:36:48;16.80;47.90
17399;DHT22;8817;48.170;8.592;2022-09-21T08:39:16;16.80;47.90
17399;DHT22;8817;48.170;8.592;2022-09-21T08:41:56;16.90;47.80
17399;DHT22;8817;48.170;8.592;2022-09-21T08:44:27;17.00;47.80
17399;DHT22;8817;48.170;8.592;2022-09-21T08:47:01;17.10;47.80
17399;DHT22;8817;48.170;8.592;2022-09-21T08:49:32;17.10;47.80
17399;DHT22;8817;48.170;8.592;2022-09-21T08:52:03;17.20;47.80
17399;DHT22;8817;48.170;8.592;2022-09-21T08:54:37;17.30;47.80
17399;DHT22;8817;48.170;8.592;2022-09-21T08:57:09;17.30;47.80
17399;DHT22;8817;48.170;8.592;2022-09-21T08:59:39;17.40;47.80
17399;DHT22;8817;48.170;8.592;2022-09-21T09:02:24;17.50;47.80
17399;DHT22;8817;48.170;8.592;2022-09-21T09:04:59;17.50;47.80
17399;DHT22;8817;48.170;8.592;2022-09-21T09:07:53;17.60;47.90
17399;DHT22;8817;48.170;8.592;2022-09-21T09:10:34;17.70;47.90
17399;DHT22;8817;48.170;8.592;2022-09-21T09:13:21;17.80;48.00
17399;DHT22;8817;48.170;8.592;2022-09-21T09:15:57;17.90;48.00
17399;DHT22;8817;48.170;8.592;2022-09-21T09:18:33;17.90;47.90
17399;DHT22;8817;48.170;8.592;2022-09-21T09:21:10;18.00;47.90
17399;DHT22;8817;48.170;8.592;2022-09-21T09:23:42;18.10;47.80
17399;DHT22;8817;48.170;8.592;2022-09-21T09:26:17;18.10;47.80
17399;DHT22;8817;48.170;8.592;2022-09-21T09:28:48;18.20;47.80
17399;DHT22;8817;48.170;8.592;2022-09-21T09:31:20;18.20;47.80
17399;DHT22;8817;48.170;8.592;2022-09-21T09:33:55;18.30;47.80
17399;DHT22;8817;48.170;8.592;2022-09-21T09:36:28;18.30;47.80
17399;DHT22;8817;48.170;8.592;2022-09-21T09:39:00;18.40;47.90
17399;DHT22;8817;48.170;8.592;2022-09-21T09:44:58;18.50;48.00
17399;DHT22;8817;48.170;8.592;2022-09-21T09:47:37;18.60;48.00
17399;DHT22;8817;48.170;8.592;2022-09-21T09:50:10;18.70;48.00
17399;DHT22;8817;48.170;8.592;2022-09-21T09:52:38;18.80;48.10
17399;DHT22;8817;48.170;8.592;2022-09-21T09:55:16;18.80;48.10
17399;DHT22;8817;48.170;8.592;2022-09-21T09:57:46;19.00;48.10
17399;DHT22;8817;48.170;8.592;2022-09-21T10:00:15;19.10;47.90
17399;DHT22;8817;48.170;8.592;2022-09-21T10:02:47;19.00;47.70
17399;DHT22;8817;48.170;8.592;2022-09-21T10:05:21;19.10;47.70
17399;DHT22;8817;48.170;8.592;2022-09-21T10:07:49;19.10;47.60
17399;DHT22;8817;48.170;8.592;2022-09-21T10:10:30;19.20;47.50
17399;DHT22;8817;48.170;8.592;2022-09-21T10:13:08;19.20;47.60
17399;DHT22;8817;48.170;8.592;2022-09-21T10:15:41;19.30;47.70
17399;DHT22;8817;48.170;8.592;2022-09-21T10:18:20;19.40;47.80
17399;DHT22;8817;48.170;8.592;2022-09-21T10:20:56;19.50;47.80
17399;DHT22;8817;48.170;8.592;2022-09-21T10:23:24;19.60;47.70
17399;DHT22;8817;48.170;8.592;2022-09-21T10:25:57;19.70;47.70
17399;DHT22;8817;48.170;8.592;2022-09-21T10:28:27;19.70;47.70
17399;DHT22;8817;48.170;8.592;2022-09-21T10:31:17;19.80;47.70
17399;DHT22;8817;48.170;8.592;2022-09-21T10:33:49;19.90;47.70
17399;DHT22;8817;48.170;8.592;2022-09-21T10:36:31;19.90;47.60
17399;DHT22;8817;48.170;8.592;2022-09-21T10:39:18;19.90;47.50
17399;DHT22;8817;48.170;8.592;2022-09-21T10:41:50;20.00;47.30
17399;DHT22;8817;48.170;8.592;2022-09-21T10:44:21;20.00;47.20
17399;DHT22;8817;48.170;8.592;2022-09-21T10:46:49;20.00;47.10
17399;DHT22;8817;48.170;8.592;2022-09-21T10:49:21;20.00;47.60
17399;DHT22;8817;48.170;8.592;2022-09-21T10:51:50;20.00;47.10
17399;DHT22;8817;48.170;8.592;2022-09-21T10:54:22;20.00;47.00
17399;DHT22;8817;48.170;8.592;2022-09-21T10:56:56;20.00;47.00
17399;DHT22;8817;48.170;8.592;2022-09-21T10:59:27;20.00;47.00
17399;DHT22;8817;48.170;8.592;2022-09-21T11:01:56;20.00;47.00
17399;DHT22;8817;48.170;8.592;2022-09-21T11:04:33;20.00;47.00
17399;DHT22;8817;48.170;8.592;2022-09-21T11:07:11;20.00;47.10
17399;DHT22;8817;48.170;8.592;2022-09-21T11:09:43;20.10;47.20
17399;DHT22;8817;48.170;8.592;2022-09-21T11:12:25;20.10;47.30
17399;DHT22;8817;48.170;8.592;2022-09-21T11:15:02;20.20;47.20
17399;DHT22;8817;48.170;8.592;2022-09-21T11:17:37;20.20;47.10
17399;DHT22;8817;48.170;8.592;2022-09-21T11:20:13;20.30;47.10
17399;DHT22;8817;48.170;8.592;2022-09-21T11:22:48;20.30;47.10
17399;DHT22;8817;48.170;8.592;2022-09-21T11:25:27;20.40;47.10
17399;DHT22;8817;48.170;8.592;2022-09-21T11:28:02;20.50;47.10
17399;DHT22;8817;48.170;8.592;2022-09-21T11:30:50;20.60;47.20
17399;DHT22;8817;48.170;8.592;2022-09-21T11:33:32;20.60;47.00
17399;DHT22;8817;48.170;8.592;2022-09-21T11:36:10;20.70;47.60
17399;DHT22;8817;48.170;8.592;2022-09-21T11:38:46;20.80;47.10
17399;DHT22;8817;48.170;8.592;2022-09-21T11:41:43;20.90;47.00
17399;DHT22;8817;48.170;8.592;2022-09-21T11:44:40;20.90;46.90
17399;DHT22;8817;48.170;8.592;2022-09-21T11:47:38;21.00;46.90
17399;DHT22;8817;48.170;8.592;2022-09-21T11:50:25;21.10;46.80
17399;DHT22;8817;48.170;8.592;2022-09-21T11:53:07;21.10;46.50
17399;DHT22;8817;48.170;8.592;2022-09-21T11:55:58;21.10;46.40
17399;DHT22;8817;48.170;8.592;2022-09-21T11:58:33;21.10;46.30
17399;DHT22;8817;48.170;8.592;2022-09-21T12:01:12;21.20;46.30
17399;DHT22;8817;48.170;8.592;2022-09-21T12:04:04;21.20;46.30
17399;DHT22;8817;48.170;8.592;2022-09-21T12:06:48;21.20;46.30
17399;DHT22;8817;48.170;8.592;2022-09-21T12:09:40;21.20;46.30
17399;DHT22;8817;48.170;8.592;2022-09-21T12:12:15;21.30;46.40
17399;DHT22;8817;48.170;8.592;2022-09-21T12:14:51;21.40;46.50
17399;DHT22;8817;48.170;8.592;2022-09-21T12:17:27;21.40;46.60
17399;DHT22;8817;48.170;8.592;2022-09-21T12:20:04;21.50;46.60
17399;DHT22;8817;48.170;8.592;2022-09-21T12:22:38;21.50;46.40
17399;DHT22;8817;48.170;8.592;2022-09-21T12:25:13;21.60;46.30
17399;DHT22;8817;48.170;8.592;2022-09-21T12:27:45;21.70;46.10
17399;DHT22;8817;48.170;8.592;2022-09-21T12:30:16;21.70;46.00
17399;DHT22;8817;48.170;8.592;2022-09-21T12:32:49;21.70;46.00
17399;DHT22;8817;48.170;8.592;2022-09-21T12:35:24;21.70;45.90
17399;DHT22;8817;48.170;8.592;2022-09-21T12:37:56;21.80;45.90
17399;DHT22;8817;48.170;8.592;2022-09-21T12:40:30;21.80;45.80
17399;DHT22;8817;48.170;8.592;2022-09-21T12:43:07;21.80;45.80
17399;DHT22;8817;48.170;8.592;2022-09-21T12:45:40;21.90;45.80
17399;DHT22;8817;48.170;8.592;2022-09-21T12:48:23;21.90;45.60
17399;DHT22;8817;48.170;8.592;2022-09-21T12:50:56;21.90;45.60
17399;DHT22;8817;48.170;8.592;2022-09-21T12:53:26;21.90;45.60
17399;DHT22;8817;48.170;8.592;2022-09-21T12:55:59;22.00;45.70
17399;DHT22;8817;48.170;8.592;2022-09-21T12:58:40;22.10;45.90
17399;DHT22;8817;48.170;8.592;2022-09-21T13:01:20;22.10;45.70
17399;DHT22;8817;48.170;8.592;2022-09-21T13:07:17;22.30;45.70
17399;DHT22;8817;48.170;8.592;2022-09-21T13:09:47;22.40;45.70
17399;DHT22;8817;48.170;8.592;2022-09-21T13:12:17;22.50;45.70
17399;DHT22;8817;48.170;8.592;2022-09-21T13:14:49;22.60;45.60
17399;DHT22;8817;48.170;8.592;2022-09-21T13:17:21;22.70;45.60
17399;DHT22;8817;48.170;8.592;2022-09-21T13:19:57;22.70;45.30
17399;DHT22;8817;48.170;8.592;2022-09-21T13:22:30;22.70;45.00
17399;DHT22;8817;48.170;8.592;2022-09-21T13:25:00;22.70;44.90
17399;DHT22;8817;48.170;8.592;2022-09-21T13:27:56;22.80;45.00
17399;DHT22;8817;48.170;8.592;2022-09-21T13:30:31;22.70;44.80
17399;DHT22;8817;48.170;8.592;2022-09-21T13:32:59;22.80;44.80
17399;DHT22;8817;48.170;8.592;2022-09-21T13:35:58;22.80;44.90
17399;DHT22;8817;48.170;8.592;2022-09-21T13:38:30;22.80;45.00
17399;DHT22;8817;48.170;8.592;2022-09-21T13:41:00;22.90;44.90
17399;DHT22;8817;48.170;8.592;2022-09-21T13:44:01;22.90;44.70
17399;DHT22;8817;48.170;8.592;2022-09-21T13:46:49;22.90;44.80
17399;DHT22;8817;48.170;8.592;2022-09-21T13:49:31;22.90;44.70
17399;DHT22;8817;48.170;8.592;2022-09-21T13:52:02;23.00;45.30
17399;DHT22;8817;48.170;8.592;2022-09-21T13:54:34;23.00;44.70
17399;DHT22;8817;48.170;8.592;2022-09-21T13:57:06;23.10;44.60
17399;DHT22;8817;48.170;8.592;2022-09-21T13:59:41;23.10;44.40
17399;DHT22;8817;48.170;8.592;2022-09-21T14:02:22;23.10;44.30
17399;DHT22;8817;48.170;8.592;2022-09-21T14:04:50;23.10;44.40
17399;DHT22;8817;48.170;8.592;2022-09-21T14:07:17;23.10;44.40
17399;DHT22;8817;48.170;8.592;2022-09-21T14:09:55;23.20;44.30
17399;DHT22;8817;48.170;8.592;2022-09-21T14:12:25;23.20;44.10
17399;DHT22;8817;48.170;8.592;2022-09-21T14:21:11;23.30;44.20
17399;DHT22;8817;48.170;8.592;2022-09-21T14:27:12;23.40;44.40
17399;DHT22;8817;48.170;8.592;2022-09-21T14:29:44;23.60;44.40
17399;DHT22;8817;48.170;8.592;2022-09-21T14:32:17;23.70;44.30
17399;DHT22;8817;48.170;8.592;2022-09-21T14:34:50;23.70;44.00
17399;DHT22;8817;48.170;8.592;2022-09-21T14:37:26;23.80;43.90
17399;DHT22;8817;48.170;8.592;2022-09-21T14:39:55;23.80;43.80
17399;DHT22;8817;48.170;8.592;2022-09-21T14:42:26;23.90;43.70
17399;DHT22;8817;48.170;8.592;2022-09-21T14:44:56;23.90;43.60
17399;DHT22;8817;48.170;8.592;2022-09-21T14:50:29;24.00;43.40
17399;DHT22;8817;48.170;8.592;2022-09-21T14:53:16;24.00;43.20
17399;DHT22;8817;48.170;8.592;2022-09-21T14:56:08;24.00;43.10
17399;DHT22;8817;48.170;8.592;2022-09-21T14:58:50;24.00;43.40
17399;DHT22;8817;48.170;8.592;2022-09-21T15:01:33;24.10;43.60
17399;DHT22;8817;48.170;8.592;2022-09-21T15:04:21;24.10;43.70
17399;DHT22;8817;48.170;8.592;2022-09-21T15:06:57;24.30;43.70
17399;DHT22;8817;48.170;8.592;2022-09-21T15:09:58;24.50;43.90
17399;DHT22;8817;48.170;8.592;2022-09-21T15:12:54;24.70;43.80
17399;DHT22;8817;48.170;8.592;2022-09-21T15:15:34;24.90;43.70
17399;DHT22;8817;48.170;8.592;2022-09-21T15:18:14;25.00;43.40
17399;DHT22;8817;48.170;8.592;2022-09-21T15:20:42;25.20;42.80
17399;DHT22;8817;48.170;8.592;2022-09-21T15:23:17;25.20;42.20
17399;DHT22;8817;48.170;8.592;2022-09-21T15:25:53;25.10;41.60
17399;DHT22;8817;48.170;8.592;2022-09-21T15:28:24;25.00;41.30
17399;DHT22;8817;48.170;8.592;2022-09-21T15:30:56;24.90;41.10
17399;DHT22;8817;48.170;8.592;2022-09-21T15:33:23;24.70;40.80
17399;DHT22;8817;48.170;8.592;2022-09-21T15:35:52;24.50;40.80
17399;DHT22;8817;48.170;8.592;2022-09-21T15:38:29;24.30;40.70
17399;DHT22;8817;48.170;8.592;2022-09-21T15:40:57;24.10;40.80
17399;DHT22;8817;48.170;8.592;2022-09-21T15:43:24;23.90;40.70
17399;DHT22;8817;48.170;8.592;2022-09-21T15:45:54;23.80;40.70
17399;DHT22;8817;48.170;8.592;2022-09-21T15:48:23;23.60;40.60
17399;DHT22;8817;48.170;8.592;2022-09-21T15:50:54;23.50;40.70
17399;DHT22;8817;48.170;8.592;2022-09-21T15:53:26;23.30;40.60
17399;DHT22;8817;48.170;8.592;2022-09-21T15:55:55;23.20;40.60
17399;DHT22;8817;48.170;8.592;2022-09-21T15:58:31;23.10;40.60
17399;DHT22;8817;48.170;8.592;2022-09-21T16:01:02;22.90;40.40
17399;DHT22;8817;48.170;8.592;2022-09-21T16:03:34;22.80;40.30
17399;DHT22;8817;48.170;8.592;2022-09-21T16:06:18;22.60;40.30
17399;DHT22;8817;48.170;8.592;2022-09-21T16:08:49;22.40;40.30
17399;DHT22;8817;48.170;8.592;2022-09-21T16:11:18;22.30;40.30
17399;DHT22;8817;48.170;8.592;2022-09-21T16:13:56;22.20;40.30
17399;DHT22;8817;48.170;8.592;2022-09-21T16:17:06;22.00;40.30
17399;DHT22;8817;48.170;8.592;2022-09-21T16:20:12;21.80;40.40
17399;DHT22;8817;48.170;8.592;2022-09-21T16:22:42;21.70;40.40
17399;DHT22;8817;48.170;8.592;2022-09-21T16:25:21;21.60;40.40
17399;DHT22;8817;48.170;8.592;2022-09-21T16:27:50;21.50;40.40
17399;DHT22;8817;48.170;8.592;2022-09-21T16:30:46;21.40;40.30
17399;DHT22;8817;48.170;8.592;2022-09-21T16:33:37;21.30;40.40
17399;DHT22;8817;48.170;8.592;2022-09-21T16:36:42;21.10;40.40
17399;DHT22;8817;48.170;8.592;2022-09-21T16:39:14;21.00;40.30
17399;DHT22;8817;48.170;8.592;2022-09-21T16:41:48;20.90;40.30